Terminal Aerodrome Forecast
Issued by NWS Shreveport, LA

Home | Current Version | Previous Version | Text Only | Print | Product List | Glossary On
Versions: 1 2 3 4 5 6 7 8 9 10 11 12 13 14 15 16 17 18 19 20 21
000
FTUS44 KSHV 221743
TAFELD
TAF
KELD 221743Z 2218/2318 03005KT P6SM -SHRA OVC120
      TEMPO 2218/2222 3SM SHRA BR BKN025 OVC100
     FM230100 05004KT P6SM OVC015
     FM230600 36003KT 4SM BR OVC010
      TEMPO 2308/2312 2SM BR OVC008
     FM231500 34003KT P6SM OVC015=

USA.gov is the U.S. government's official web portal to all federal, state and local government web resources and services.